sensor_id;sensor_type;location;lat;lon;timestamp;P1;durP1;ratioP1;P2;durP2;ratioP2
9142;SDS011;54072;47.410;8.446;2023-06-04T00:01:49;7.87;;;6.37;;
9142;SDS011;54072;47.410;8.446;2023-06-04T00:04:16;8.33;;;6.47;;
9142;SDS011;54072;47.410;8.446;2023-06-04T00:06:44;8.97;;;6.87;;
9142;SDS011;54072;47.410;8.446;2023-06-04T00:09:12;8.07;;;6.50;;
9142;SDS011;54072;47.410;8.446;2023-06-04T00:11:41;9.53;;;6.77;;
9142;SDS011;54072;47.410;8.446;2023-06-04T00:14:08;7.83;;;7.03;;
9142;SDS011;54072;47.410;8.446;2023-06-04T00:16:36;10.30;;;6.80;;
9142;SDS011;54072;47.410;8.446;2023-06-04T00:19:03;8.83;;;6.97;;
9142;SDS011;54072;47.410;8.446;2023-06-04T00:21:31;12.07;;;7.77;;
9142;SDS011;54072;47.410;8.446;2023-06-04T00:23:59;8.23;;;7.20;;
9142;SDS011;54072;47.410;8.446;2023-06-04T00:26:26;8.37;;;7.23;;
9142;SDS011;54072;47.410;8.446;2023-06-04T00:28:55;8.50;;;7.60;;
9142;SDS011;54072;47.410;8.446;2023-06-04T00:31:23;11.10;;;7.60;;
9142;SDS011;54072;47.410;8.446;2023-06-04T00:33:50;9.17;;;8.03;;
9142;SDS011;54072;47.410;8.446;2023-06-04T00:36:18;11.73;;;7.60;;
9142;SDS011;54072;47.410;8.446;2023-06-04T00:38:45;9.10;;;7.10;;
9142;SDS011;54072;47.410;8.446;2023-06-04T00:41:13;9.30;;;7.70;;
9142;SDS011;54072;47.410;8.446;2023-06-04T00:43:41;8.83;;;7.00;;
9142;SDS011;54072;47.410;8.446;2023-06-04T00:46:13;9.43;;;7.80;;
9142;SDS011;54072;47.410;8.446;2023-06-04T00:48:44;10.03;;;7.90;;
9142;SDS011;54072;47.410;8.446;2023-06-04T00:51:12;12.73;;;7.60;;
9142;SDS011;54072;47.410;8.446;2023-06-04T00:53:39;10.10;;;7.50;;
9142;SDS011;54072;47.410;8.446;2023-06-04T00:56:07;9.57;;;6.40;;
9142;SDS011;54072;47.410;8.446;2023-06-04T00:58:37;8.30;;;6.77;;
9142;SDS011;54072;47.410;8.446;2023-06-04T01:01:05;9.60;;;6.10;;
9142;SDS011;54072;47.410;8.446;2023-06-04T01:03:36;8.60;;;6.90;;
9142;SDS011;54072;47.410;8.446;2023-06-04T01:06:08;9.43;;;6.67;;
9142;SDS011;54072;47.410;8.446;2023-06-04T01:08:37;9.20;;;7.13;;
9142;SDS011;54072;47.410;8.446;2023-06-04T01:11:09;11.83;;;8.10;;
9142;SDS011;54072;47.410;8.446;2023-06-04T01:13:36;10.80;;;8.10;;
9142;SDS011;54072;47.410;8.446;2023-06-04T01:16:04;9.57;;;7.83;;
9142;SDS011;54072;47.410;8.446;2023-06-04T01:18:31;10.07;;;9.07;;
9142;SDS011;54072;47.410;8.446;2023-06-04T01:21:04;11.07;;;8.73;;
9142;SDS011;54072;47.410;8.446;2023-06-04T01:23:46;11.13;;;8.13;;
9142;SDS011;54072;47.410;8.446;2023-06-04T01:26:15;9.10;;;7.57;;
9142;SDS011;54072;47.410;8.446;2023-06-04T01:28:43;8.57;;;7.20;;
9142;SDS011;54072;47.410;8.446;2023-06-04T01:31:11;7.50;;;6.80;;
9142;SDS011;54072;47.410;8.446;2023-06-04T01:33:40;8.63;;;7.17;;
9142;SDS011;54072;47.410;8.446;2023-06-04T01:36:09;9.17;;;7.80;;
9142;SDS011;54072;47.410;8.446;2023-06-04T01:38:38;13.40;;;10.90;;
9142;SDS011;54072;47.410;8.446;2023-06-04T01:41:06;15.73;;;11.10;;
9142;SDS011;54072;47.410;8.446;2023-06-04T01:43:34;9.70;;;8.70;;
9142;SDS011;54072;47.410;8.446;2023-06-04T01:46:02;12.93;;;10.23;;
9142;SDS011;54072;47.410;8.446;2023-06-04T01:48:29;11.37;;;9.60;;
9142;SDS011;54072;47.410;8.446;2023-06-04T01:50:58;9.87;;;8.87;;
9142;SDS011;54072;47.410;8.446;2023-06-04T01:53:27;9.27;;;8.37;;
9142;SDS011;54072;47.410;8.446;2023-06-04T01:55:55;11.67;;;8.60;;
9142;SDS011;54072;47.410;8.446;2023-06-04T01:58:23;11.03;;;8.30;;
9142;SDS011;54072;47.410;8.446;2023-06-04T02:00:53;9.63;;;7.97;;
9142;SDS011;54072;47.410;8.446;2023-06-04T02:03:21;8.83;;;7.93;;
9142;SDS011;54072;47.410;8.446;2023-06-04T02:05:49;10.67;;;8.07;;
9142;SDS011;54072;47.410;8.446;2023-06-04T02:08:16;8.70;;;7.80;;
9142;SDS011;54072;47.410;8.446;2023-06-04T02:10:47;9.07;;;7.93;;
9142;SDS011;54072;47.410;8.446;2023-06-04T02:13:14;8.70;;;7.70;;
9142;SDS011;54072;47.410;8.446;2023-06-04T02:15:42;9.00;;;8.10;;
9142;SDS011;54072;47.410;8.446;2023-06-04T02:18:13;10.93;;;9.37;;
9142;SDS011;54072;47.410;8.446;2023-06-04T02:20:42;13.30;;;11.00;;
9142;SDS011;54072;47.410;8.446;2023-06-04T02:23:10;11.80;;;10.30;;
9142;SDS011;54072;47.410;8.446;2023-06-04T02:25:37;10.63;;;9.10;;
9142;SDS011;54072;47.410;8.446;2023-06-04T02:28:06;11.77;;;10.00;;
9142;SDS011;54072;47.410;8.446;2023-06-04T02:30:34;11.50;;;9.67;;
9142;SDS011;54072;47.410;8.446;2023-06-04T02:33:01;10.77;;;8.50;;
9142;SDS011;54072;47.410;8.446;2023-06-04T02:35:30;9.37;;;7.80;;
9142;SDS011;54072;47.410;8.446;2023-06-04T02:37:58;11.53;;;8.07;;
9142;SDS011;54072;47.410;8.446;2023-06-04T02:40:25;11.50;;;8.23;;
9142;SDS011;54072;47.410;8.446;2023-06-04T02:42:53;8.20;;;7.40;;
9142;SDS011;54072;47.410;8.446;2023-06-04T02:45:22;8.17;;;7.37;;
9142;SDS011;54072;47.410;8.446;2023-06-04T02:47:50;10.20;;;8.57;;
9142;SDS011;54072;47.410;8.446;2023-06-04T02:50:17;8.73;;;7.80;;
9142;SDS011;54072;47.410;8.446;2023-06-04T02:52:46;8.77;;;7.40;;
9142;SDS011;54072;47.410;8.446;2023-06-04T02:55:13;10.27;;;7.37;;
9142;SDS011;54072;47.410;8.446;2023-06-04T02:57:41;9.83;;;7.87;;
9142;SDS011;54072;47.410;8.446;2023-06-04T03:00:09;14.80;;;8.47;;
9142;SDS011;54072;47.410;8.446;2023-06-04T03:02:41;12.53;;;7.53;;
9142;SDS011;54072;47.410;8.446;2023-06-04T03:05:09;8.90;;;7.33;;
9142;SDS011;54072;47.410;8.446;2023-06-04T03:07:39;9.60;;;7.20;;
9142;SDS011;54072;47.410;8.446;2023-06-04T03:10:09;7.40;;;6.67;;
9142;SDS011;54072;47.410;8.446;2023-06-04T03:12:37;8.70;;;7.03;;
9142;SDS011;54072;47.410;8.446;2023-06-04T03:15:05;9.43;;;6.83;;
9142;SDS011;54072;47.410;8.446;2023-06-04T03:17:32;10.10;;;6.90;;
9142;SDS011;54072;47.410;8.446;2023-06-04T03:20:02;7.53;;;6.77;;
9142;SDS011;54072;47.410;8.446;2023-06-04T03:22:31;7.87;;;6.77;;
9142;SDS011;54072;47.410;8.446;2023-06-04T03:25:00;8.43;;;7.00;;
9142;SDS011;54072;47.410;8.446;2023-06-04T03:27:28;7.63;;;6.83;;
9142;SDS011;54072;47.410;8.446;2023-06-04T03:29:55;9.60;;;7.27;;
9142;SDS011;54072;47.410;8.446;2023-06-04T03:32:23;7.97;;;7.13;;
9142;SDS011;54072;47.410;8.446;2023-06-04T03:34:51;7.97;;;6.70;;
9142;SDS011;54072;47.410;8.446;2023-06-04T03:37:19;7.67;;;6.70;;
9142;SDS011;54072;47.410;8.446;2023-06-04T03:39:47;10.63;;;7.10;;
9142;SDS011;54072;47.410;8.446;2023-06-04T03:42:14;9.60;;;7.37;;
9142;SDS011;54072;47.410;8.446;2023-06-04T03:44:42;7.80;;;6.57;;
9142;SDS011;54072;47.410;8.446;2023-06-04T03:47:10;8.93;;;6.87;;
9142;SDS011;54072;47.410;8.446;2023-06-04T03:49:37;7.10;;;6.40;;
9142;SDS011;54072;47.410;8.446;2023-06-04T03:52:05;7.97;;;7.17;;
9142;SDS011;54072;47.410;8.446;2023-06-04T03:54:34;12.07;;;7.10;;
9142;SDS011;54072;47.410;8.446;2023-06-04T03:57:01;10.13;;;6.50;;
9142;SDS011;54072;47.410;8.446;2023-06-04T03:59:29;9.57;;;7.00;;
9142;SDS011;54072;47.410;8.446;2023-06-04T04:01:56;9.73;;;6.60;;
9142;SDS011;54072;47.410;8.446;2023-06-04T04:04:24;7.80;;;7.00;;
9142;SDS011;54072;47.410;8.446;2023-06-04T04:06:52;9.77;;;7.07;;
9142;SDS011;54072;47.410;8.446;2023-06-04T04:09:19;8.70;;;6.60;;
9142;SDS011;54072;47.410;8.446;2023-06-04T04:11:48;9.03;;;7.27;;
9142;SDS011;54072;47.410;8.446;2023-06-04T04:14:16;7.73;;;6.90;;
9142;SDS011;54072;47.410;8.446;2023-06-04T04:16:43;7.63;;;6.83;;
9142;SDS011;54072;47.410;8.446;2023-06-04T04:19:11;11.33;;;7.07;;
9142;SDS011;54072;47.410;8.446;2023-06-04T04:21:38;8.33;;;7.07;;
9142;SDS011;54072;47.410;8.446;2023-06-04T04:24:06;7.30;;;6.50;;
9142;SDS011;54072;47.410;8.446;2023-06-04T04:26:34;7.90;;;7.10;;
9142;SDS011;54072;47.410;8.446;2023-06-04T04:29:03;9.27;;;6.97;;
9142;SDS011;54072;47.410;8.446;2023-06-04T04:31:30;9.77;;;7.30;;
9142;SDS011;54072;47.410;8.446;2023-06-04T04:33:58;8.03;;;6.83;;
9142;SDS011;54072;47.410;8.446;2023-06-04T04:36:26;9.17;;;6.83;;
9142;SDS011;54072;47.410;8.446;2023-06-04T04:38:54;9.50;;;6.67;;
9142;SDS011;54072;47.410;8.446;2023-06-04T04:41:21;7.80;;;6.80;;
9142;SDS011;54072;47.410;8.446;2023-06-04T04:43:52;9.07;;;6.77;;
9142;SDS011;54072;47.410;8.446;2023-06-04T04:46:21;11.33;;;6.60;;
9142;SDS011;54072;47.410;8.446;2023-06-04T04:48:49;9.07;;;6.77;;
9142;SDS011;54072;47.410;8.446;2023-06-04T04:51:16;8.50;;;6.53;;
9142;SDS011;54072;47.410;8.446;2023-06-04T04:53:44;8.47;;;6.50;;
9142;SDS011;54072;47.410;8.446;2023-06-04T04:56:11;8.13;;;6.60;;
9142;SDS011;54072;47.410;8.446;2023-06-04T04:58:39;7.77;;;6.50;;
9142;SDS011;54072;47.410;8.446;2023-06-04T05:01:06;7.57;;;6.83;;
9142;SDS011;54072;47.410;8.446;2023-06-04T05:03:35;8.47;;;6.70;;
9142;SDS011;54072;47.410;8.446;2023-06-04T05:06:03;9.17;;;6.57;;
9142;SDS011;54072;47.410;8.446;2023-06-04T05:08:30;7.70;;;6.87;;
9142;SDS011;54072;47.410;8.446;2023-06-04T05:10:58;7.60;;;6.77;;
9142;SDS011;54072;47.410;8.446;2023-06-04T05:13:25;8.07;;;6.73;;
9142;SDS011;54072;47.410;8.446;2023-06-04T05:15:53;8.17;;;6.77;;
9142;SDS011;54072;47.410;8.446;2023-06-04T05:18:21;7.23;;;6.53;;
9142;SDS011;54072;47.410;8.446;2023-06-04T05:20:56;8.77;;;6.97;;
9142;SDS011;54072;47.410;8.446;2023-06-04T05:23:24;7.30;;;6.33;;
9142;SDS011;54072;47.410;8.446;2023-06-04T05:25:51;8.47;;;6.60;;
9142;SDS011;54072;47.410;8.446;2023-06-04T05:28:19;7.13;;;6.43;;
9142;SDS011;54072;47.410;8.446;2023-06-04T05:30:46;12.03;;;6.43;;
9142;SDS011;54072;47.410;8.446;2023-06-04T05:33:15;7.33;;;6.23;;
9142;SDS011;54072;47.410;8.446;2023-06-04T05:35:45;7.97;;;6.10;;
9142;SDS011;54072;47.410;8.446;2023-06-04T05:38:14;8.73;;;6.23;;
9142;SDS011;54072;47.410;8.446;2023-06-04T05:40:43;7.63;;;6.50;;
9142;SDS011;54072;47.410;8.446;2023-06-04T05:43:11;7.00;;;6.33;;
9142;SDS011;54072;47.410;8.446;2023-06-04T05:45:38;7.90;;;6.00;;
9142;SDS011;54072;47.410;8.446;2023-06-04T05:48:06;6.77;;;6.10;;
9142;SDS011;54072;47.410;8.446;2023-06-04T05:50:33;8.87;;;5.57;;
9142;SDS011;54072;47.410;8.446;2023-06-04T05:53:01;9.50;;;5.93;;
9142;SDS011;54072;47.410;8.446;2023-06-04T05:55:30;7.03;;;6.00;;
9142;SDS011;54072;47.410;8.446;2023-06-04T05:57:57;9.17;;;6.73;;
9142;SDS011;54072;47.410;8.446;2023-06-04T06:00:25;6.40;;;5.80;;
9142;SDS011;54072;47.410;8.446;2023-06-04T06:02:53;8.43;;;6.17;;
9142;SDS011;54072;47.410;8.446;2023-06-04T06:05:20;7.17;;;6.00;;
9142;SDS011;54072;47.410;8.446;2023-06-04T06:07:48;7.93;;;5.47;;
9142;SDS011;54072;47.410;8.446;2023-06-04T06:10:16;8.77;;;5.90;;
9142;SDS011;54072;47.410;8.446;2023-06-04T06:12:45;6.03;;;5.43;;
9142;SDS011;54072;47.410;8.446;2023-06-04T06:15:12;7.83;;;6.03;;
9142;SDS011;54072;47.410;8.446;2023-06-04T06:17:40;7.70;;;5.67;;
9142;SDS011;54072;47.410;8.446;2023-06-04T06:20:07;6.53;;;5.67;;
9142;SDS011;54072;47.410;8.446;2023-06-04T06:22:35;6.63;;;5.93;;
9142;SDS011;54072;47.410;8.446;2023-06-04T06:25:03;6.93;;;6.00;;
9142;SDS011;54072;47.410;8.446;2023-06-04T06:27:31;6.57;;;5.87;;
9142;SDS011;54072;47.410;8.446;2023-06-04T06:30:00;7.10;;;5.67;;
9142;SDS011;54072;47.410;8.446;2023-06-04T06:32:28;7.63;;;5.53;;
9142;SDS011;54072;47.410;8.446;2023-06-04T06:34:55;6.70;;;5.97;;
9142;SDS011;54072;47.410;8.446;2023-06-04T06:37:23;8.13;;;5.70;;
9142;SDS011;54072;47.410;8.446;2023-06-04T06:39:50;9.33;;;6.07;;
9142;SDS011;54072;47.410;8.446;2023-06-04T06:42:18;9.97;;;6.17;;
9142;SDS011;54072;47.410;8.446;2023-06-04T06:44:46;7.77;;;6.03;;
9142;SDS011;54072;47.410;8.446;2023-06-04T06:47:15;7.40;;;5.90;;
9142;SDS011;54072;47.410;8.446;2023-06-04T06:49:42;7.77;;;5.83;;
9142;SDS011;54072;47.410;8.446;2023-06-04T06:52:10;10.00;;;5.70;;
9142;SDS011;54072;47.410;8.446;2023-06-04T06:54:37;6.87;;;6.13;;
9142;SDS011;54072;47.410;8.446;2023-06-04T06:57:05;9.00;;;7.60;;
9142;SDS011;54072;47.410;8.446;2023-06-04T06:59:35;8.00;;;7.27;;
9142;SDS011;54072;47.410;8.446;2023-06-04T07:02:03;8.27;;;6.73;;
9142;SDS011;54072;47.410;8.446;2023-06-04T07:04:32;7.03;;;6.37;;
9142;SDS011;54072;47.410;8.446;2023-06-04T07:06:59;7.37;;;5.87;;
9142;SDS011;54072;47.410;8.446;2023-06-04T07:09:27;7.43;;;6.17;;
9142;SDS011;54072;47.410;8.446;2023-06-04T07:11:54;6.67;;;6.07;;
9142;SDS011;54072;47.410;8.446;2023-06-04T07:14:22;8.47;;;6.03;;
9142;SDS011;54072;47.410;8.446;2023-06-04T07:16:49;6.40;;;5.77;;
9142;SDS011;54072;47.410;8.446;2023-06-04T07:19:17;6.60;;;6.00;;
9142;SDS011;54072;47.410;8.446;2023-06-04T07:21:46;6.63;;;5.93;;
9142;SDS011;54072;47.410;8.446;2023-06-04T07:24:13;7.20;;;6.00;;
9142;SDS011;54072;47.410;8.446;2023-06-04T07:26:41;6.77;;;6.17;;
9142;SDS011;54072;47.410;8.446;2023-06-04T07:29:08;7.73;;;6.33;;
9142;SDS011;54072;47.410;8.446;2023-06-04T07:31:36;8.20;;;6.07;;
9142;SDS011;54072;47.410;8.446;2023-06-04T07:34:03;9.57;;;6.80;;
9142;SDS011;54072;47.410;8.446;2023-06-04T07:36:31;7.60;;;6.50;;
9142;SDS011;54072;47.410;8.446;2023-06-04T07:39:00;9.33;;;7.30;;
9142;SDS011;54072;47.410;8.446;2023-06-04T07:41:27;11.00;;;7.27;;
9142;SDS011;54072;47.410;8.446;2023-06-04T07:43:55;10.53;;;7.27;;
9142;SDS011;54072;47.410;8.446;2023-06-04T07:46:22;9.70;;;7.70;;
9142;SDS011;54072;47.410;8.446;2023-06-04T07:48:50;9.03;;;7.60;;
9142;SDS011;54072;47.410;8.446;2023-06-04T07:51:17;8.33;;;7.53;;
9142;SDS011;54072;47.410;8.446;2023-06-04T07:53:45;9.03;;;7.57;;
9142;SDS011;54072;47.410;8.446;2023-06-04T07:56:14;7.33;;;6.63;;
9142;SDS011;54072;47.410;8.446;2023-06-04T07:58:43;9.50;;;7.47;;
9142;SDS011;54072;47.410;8.446;2023-06-04T08:01:11;8.70;;;7.80;;
9142;SDS011;54072;47.410;8.446;2023-06-04T08:03:39;8.10;;;7.30;;
9142;SDS011;54072;47.410;8.446;2023-06-04T08:06:07;8.37;;;6.83;;
9142;SDS011;54072;47.410;8.446;2023-06-04T08:08:36;8.77;;;6.83;;
9142;SDS011;54072;47.410;8.446;2023-06-04T08:11:03;8.80;;;7.30;;
9142;SDS011;54072;47.410;8.446;2023-06-04T08:13:32;7.93;;;6.97;;
9142;SDS011;54072;47.410;8.446;2023-06-04T08:16:00;8.93;;;7.27;;
9142;SDS011;54072;47.410;8.446;2023-06-04T08:18:28;8.40;;;7.47;;
9142;SDS011;54072;47.410;8.446;2023-06-04T08:20:55;8.77;;;7.80;;
9142;SDS011;54072;47.410;8.446;2023-06-04T08:23:23;7.90;;;7.10;;
9142;SDS011;54072;47.410;8.446;2023-06-04T08:25:51;9.15;;;7.55;;
9142;SDS011;54072;47.410;8.446;2023-06-04T08:28:18;9.13;;;7.15;;
9142;SDS011;54072;47.410;8.446;2023-06-04T08:30:47;8.00;;;7.20;;
9142;SDS011;54072;47.410;8.446;2023-06-04T08:33:15;7.70;;;6.95;;
9142;SDS011;54072;47.410;8.446;2023-06-04T08:35:42;9.32;;;6.68;;
9142;SDS011;54072;47.410;8.446;2023-06-04T08:38:10;8.80;;;6.63;;
9142;SDS011;54072;47.410;8.446;2023-06-04T08:40:37;7.10;;;6.28;;
9142;SDS011;54072;47.410;8.446;2023-06-04T08:43:05;7.13;;;6.15;;
9142;SDS011;54072;47.410;8.446;2023-06-04T08:45:33;6.93;;;6.30;;
9142;SDS011;54072;47.410;8.446;2023-06-04T08:48:08;11.70;;;6.43;;
9142;SDS011;54072;47.410;8.446;2023-06-04T08:50:36;7.13;;;6.45;;
9142;SDS011;54072;47.410;8.446;2023-06-04T08:53:06;6.93;;;6.20;;
9142;SDS011;54072;47.410;8.446;2023-06-04T08:55:34;6.95;;;5.90;;
9142;SDS011;54072;47.410;8.446;2023-06-04T08:58:02;7.20;;;6.50;;
9142;SDS011;54072;47.410;8.446;2023-06-04T09:00:29;7.38;;;6.47;;
9142;SDS011;54072;47.410;8.446;2023-06-04T09:02:57;7.28;;;6.35;;
9142;SDS011;54072;47.410;8.446;2023-06-04T09:05:27;6.88;;;6.18;;
9142;SDS011;54072;47.410;8.446;2023-06-04T09:07:54;8.60;;;6.50;;
9142;SDS011;54072;47.410;8.446;2023-06-04T09:10:24;10.85;;;7.45;;
9142;SDS011;54072;47.410;8.446;2023-06-04T09:12:52;8.32;;;7.03;;
9142;SDS011;54072;47.410;8.446;2023-06-04T09:15:20;8.68;;;7.28;;
9142;SDS011;54072;47.410;8.446;2023-06-04T09:17:48;9.38;;;7.13;;
9142;SDS011;54072;47.410;8.446;2023-06-04T09:20:18;10.13;;;7.40;;
9142;SDS011;54072;47.410;8.446;2023-06-04T09:22:47;9.30;;;6.72;;
9142;SDS011;54072;47.410;8.446;2023-06-04T09:25:25;8.85;;;6.95;;
9142;SDS011;54072;47.410;8.446;2023-06-04T09:27:53;7.57;;;6.82;;
9142;SDS011;54072;47.410;8.446;2023-06-04T09:30:21;7.78;;;6.97;;
9142;SDS011;54072;47.410;8.446;2023-06-04T09:32:49;7.93;;;7.13;;
9142;SDS011;54072;47.410;8.446;2023-06-04T09:35:17;7.43;;;6.70;;
9142;SDS011;54072;47.410;8.446;2023-06-04T09:37:52;7.82;;;7.03;;
9142;SDS011;54072;47.410;8.446;2023-06-04T09:40:20;10.05;;;7.30;;
9142;SDS011;54072;47.410;8.446;2023-06-04T09:42:48;9.82;;;7.18;;
9142;SDS011;54072;47.410;8.446;2023-06-04T09:45:26;7.55;;;6.75;;
9142;SDS011;54072;47.410;8.446;2023-06-04T09:47:54;8.70;;;7.50;;
9142;SDS011;54072;47.410;8.446;2023-06-04T09:50:24;11.68;;;7.40;;
9142;SDS011;54072;47.410;8.446;2023-06-04T09:52:53;8.10;;;7.05;;
9142;SDS011;54072;47.410;8.446;2023-06-04T09:55:21;9.50;;;7.50;;
9142;SDS011;54072;47.410;8.446;2023-06-04T09:57:49;8.60;;;7.25;;
9142;SDS011;54072;47.410;8.446;2023-06-04T10:00:17;11.05;;;7.03;;
9142;SDS011;54072;47.410;8.446;2023-06-04T10:02:47;7.28;;;6.57;;
9142;SDS011;54072;47.410;8.446;2023-06-04T10:05:14;7.95;;;6.60;;
9142;SDS011;54072;47.410;8.446;2023-06-04T10:07:42;7.72;;;6.97;;
9142;SDS011;54072;47.410;8.446;2023-06-04T10:10:14;6.97;;;6.28;;
9142;SDS011;54072;47.410;8.446;2023-06-04T10:12:42;8.63;;;7.30;;
9142;SDS011;54072;47.410;8.446;2023-06-04T10:15:11;7.47;;;6.70;;
9142;SDS011;54072;47.410;8.446;2023-06-04T10:17:39;6.70;;;5.88;;
9142;SDS011;54072;47.410;8.446;2023-06-04T10:20:07;9.20;;;6.32;;
9142;SDS011;54072;47.410;8.446;2023-06-04T10:22:35;6.78;;;6.07;;
9142;SDS011;54072;47.410;8.446;2023-06-04T10:25:03;7.72;;;6.55;;
9142;SDS011;54072;47.410;8.446;2023-06-04T10:27:32;7.20;;;6.50;;
9142;SDS011;54072;47.410;8.446;2023-06-04T10:30:01;6.13;;;5.57;;
9142;SDS011;54072;47.410;8.446;2023-06-04T10:32:30;6.90;;;6.28;;
9142;SDS011;54072;47.410;8.446;2023-06-04T10:34:58;8.98;;;6.40;;
9142;SDS011;54072;47.410;8.446;2023-06-04T10:37:25;7.00;;;6.30;;
9142;SDS011;54072;47.410;8.446;2023-06-04T10:39:56;6.75;;;6.13;;
9142;SDS011;54072;47.410;8.446;2023-06-04T10:42:23;6.72;;;5.97;;
9142;SDS011;54072;47.410;8.446;2023-06-04T10:44:53;7.95;;;6.53;;
9142;SDS011;54072;47.410;8.446;2023-06-04T10:47:23;7.35;;;6.65;;
9142;SDS011;54072;47.410;8.446;2023-06-04T10:49:51;7.10;;;6.50;;
9142;SDS011;54072;47.410;8.446;2023-06-04T10:52:18;7.18;;;6.53;;
9142;SDS011;54072;47.410;8.446;2023-06-04T10:54:47;7.20;;;6.50;;
9142;SDS011;54072;47.410;8.446;2023-06-04T10:57:15;6.53;;;5.97;;
9142;SDS011;54072;47.410;8.446;2023-06-04T10:59:54;10.32;;;6.32;;
9142;SDS011;54072;47.410;8.446;2023-06-04T11:02:21;8.10;;;6.80;;
9142;SDS011;54072;47.410;8.446;2023-06-04T11:04:58;7.75;;;6.63;;
9142;SDS011;54072;47.410;8.446;2023-06-04T11:07:27;7.18;;;6.47;;
9142;SDS011;54072;47.410;8.446;2023-06-04T11:09:55;8.55;;;6.47;;
9142;SDS011;54072;47.410;8.446;2023-06-04T11:12:22;7.55;;;6.85;;
9142;SDS011;54072;47.410;8.446;2023-06-04T11:14:55;8.52;;;6.35;;
9142;SDS011;54072;47.410;8.446;2023-06-04T11:17:22;9.15;;;6.50;;
9142;SDS011;54072;47.410;8.446;2023-06-04T11:19:50;7.13;;;6.15;;
9142;SDS011;54072;47.410;8.446;2023-06-04T11:22:21;6.97;;;6.28;;
9142;SDS011;54072;47.410;8.446;2023-06-04T11:24:49;11.70;;;6.57;;
9142;SDS011;54072;47.410;8.446;2023-06-04T11:27:18;7.15;;;6.15;;
9142;SDS011;54072;47.410;8.446;2023-06-04T11:29:54;7.07;;;6.28;;
9142;SDS011;54072;47.410;8.446;2023-06-04T11:32:22;7.88;;;6.53;;
9142;SDS011;54072;47.410;8.446;2023-06-04T11:34:50;6.68;;;5.97;;
9142;SDS011;54072;47.410;8.446;2023-06-04T11:37:18;7.50;;;6.32;;
9142;SDS011;54072;47.410;8.446;2023-06-04T11:39:45;6.78;;;6.10;;
9142;SDS011;54072;47.410;8.446;2023-06-04T11:42:13;7.85;;;6.57;;
9142;SDS011;54072;47.410;8.446;2023-06-04T11:44:41;6.53;;;5.88;;
9142;SDS011;54072;47.410;8.446;2023-06-04T11:47:15;7.82;;;6.10;;
9142;SDS011;54072;47.410;8.446;2023-06-04T11:49:43;7.00;;;6.30;;
9142;SDS011;54072;47.410;8.446;2023-06-04T11:52:11;7.15;;;6.32;;
9142;SDS011;54072;47.410;8.446;2023-06-04T11:54:38;6.75;;;6.15;;
9142;SDS011;54072;47.410;8.446;2023-06-04T11:57:06;6.28;;;5.68;;
9142;SDS011;54072;47.410;8.446;2023-06-04T11:59:34;7.45;;;6.75;;
9142;SDS011;54072;47.410;8.446;2023-06-04T12:02:02;6.40;;;5.90;;
9142;SDS011;54072;47.410;8.446;2023-06-04T12:04:31;6.13;;;5.63;;
9142;SDS011;54072;47.410;8.446;2023-06-04T12:06:59;6.90;;;6.30;;
9142;SDS011;54072;47.410;8.446;2023-06-04T12:09:28;7.93;;;6.35;;
9142;SDS011;54072;47.410;8.446;2023-06-04T12:11:57;6.63;;;6.05;;
9142;SDS011;54072;47.410;8.446;2023-06-04T12:14:25;6.07;;;5.47;;
9142;SDS011;54072;47.410;8.446;2023-06-04T12:16:54;6.72;;;6.13;;
9142;SDS011;54072;47.410;8.446;2023-06-04T12:19:22;6.53;;;5.93;;
9142;SDS011;54072;47.410;8.446;2023-06-04T12:22:00;6.20;;;5.63;;
9142;SDS011;54072;47.410;8.446;2023-06-04T12:24:31;5.65;;;5.15;;
9142;SDS011;54072;47.410;8.446;2023-06-04T12:27:01;6.53;;;5.63;;
9142;SDS011;54072;47.410;8.446;2023-06-04T12:29:29;8.48;;;5.90;;
9142;SDS011;54072;47.410;8.446;2023-06-04T12:32:03;8.23;;;5.75;;
9142;SDS011;54072;47.410;8.446;2023-06-04T12:34:31;6.43;;;5.82;;
9142;SDS011;54072;47.410;8.446;2023-06-04T12:37:00;6.10;;;5.60;;
9142;SDS011;54072;47.410;8.446;2023-06-04T12:39:29;6.13;;;5.43;;
9142;SDS011;54072;47.410;8.446;2023-06-04T12:41:56;10.85;;;6.03;;
9142;SDS011;54072;47.410;8.446;2023-06-04T12:44:24;6.22;;;5.65;;
9142;SDS011;54072;47.410;8.446;2023-06-04T12:46:52;6.00;;;5.50;;
9142;SDS011;54072;47.410;8.446;2023-06-04T12:49:19;6.00;;;5.47;;
9142;SDS011;54072;47.410;8.446;2023-06-04T12:51:47;6.03;;;5.43;;
9142;SDS011;54072;47.410;8.446;2023-06-04T12:54:15;6.70;;;5.13;;
9142;SDS011;54072;47.410;8.446;2023-06-04T12:56:43;5.90;;;5.18;;
9142;SDS011;54072;47.410;8.446;2023-06-04T12:59:11;5.88;;;5.38;;
9142;SDS011;54072;47.410;8.446;2023-06-04T13:01:38;5.50;;;5.00;;
9142;SDS011;54072;47.410;8.446;2023-06-04T13:04:06;6.07;;;5.47;;
9142;SDS011;54072;47.410;8.446;2023-06-04T13:06:34;5.90;;;5.32;;
9142;SDS011;54072;47.410;8.446;2023-06-04T13:09:03;6.47;;;5.32;;
9142;SDS011;54072;47.410;8.446;2023-06-04T13:11:36;5.40;;;4.93;;
9142;SDS011;54072;47.410;8.446;2023-06-04T13:14:04;7.20;;;5.65;;
9142;SDS011;54072;47.410;8.446;2023-06-04T13:16:32;6.30;;;5.65;;
9142;SDS011;54072;47.410;8.446;2023-06-04T13:18:59;5.72;;;5.25;;
9142;SDS011;54072;47.410;8.446;2023-06-04T13:21:27;6.07;;;5.57;;
9142;SDS011;54072;47.410;8.446;2023-06-04T13:23:55;6.05;;;5.32;;
9142;SDS011;54072;47.410;8.446;2023-06-04T13:26:23;7.63;;;6.82;;
9142;SDS011;54072;47.410;8.446;2023-06-04T13:28:53;7.63;;;5.57;;
9142;SDS011;54072;47.410;8.446;2023-06-04T13:31:20;6.38;;;5.28;;
9142;SDS011;54072;47.410;8.446;2023-06-04T13:33:48;6.10;;;5.50;;
9142;SDS011;54072;47.410;8.446;2023-06-04T13:36:15;6.10;;;5.50;;
9142;SDS011;54072;47.410;8.446;2023-06-04T13:38:43;5.50;;;5.07;;
9142;SDS011;54072;47.410;8.446;2023-06-04T13:41:11;6.13;;;5.53;;
9142;SDS011;54072;47.410;8.446;2023-06-04T13:43:38;5.85;;;5.35;;
9142;SDS011;54072;47.410;8.446;2023-06-04T13:46:07;7.30;;;5.45;;
9142;SDS011;54072;47.410;8.446;2023-06-04T13:48:35;6.30;;;5.70;;
9142;SDS011;54072;47.410;8.446;2023-06-04T13:51:02;5.78;;;5.35;;
9142;SDS011;54072;47.410;8.446;2023-06-04T13:53:30;5.95;;;5.22;;
9142;SDS011;54072;47.410;8.446;2023-06-04T13:55:57;6.60;;;6.00;;
9142;SDS011;54072;47.410;8.446;2023-06-04T13:58:25;5.72;;;5.03;;
9142;SDS011;54072;47.410;8.446;2023-06-04T14:00:53;5.85;;;5.35;;
9142;SDS011;54072;47.410;8.446;2023-06-04T14:03:22;6.18;;;5.22;;
9142;SDS011;54072;47.410;8.446;2023-06-04T14:05:50;6.07;;;5.57;;
9142;SDS011;54072;47.410;8.446;2023-06-04T14:08:17;6.20;;;5.40;;
9142;SDS011;54072;47.410;8.446;2023-06-04T14:10:45;5.57;;;5.10;;
9142;SDS011;54072;47.410;8.446;2023-06-04T14:13:12;5.57;;;5.07;;
9142;SDS011;54072;47.410;8.446;2023-06-04T14:15:40;5.50;;;5.00;;
9142;SDS011;54072;47.410;8.446;2023-06-04T14:18:07;5.72;;;5.22;;
9142;SDS011;54072;47.410;8.446;2023-06-04T14:20:37;6.07;;;5.47;;
9142;SDS011;54072;47.410;8.446;2023-06-04T14:23:04;5.88;;;5.35;;
9142;SDS011;54072;47.410;8.446;2023-06-04T14:25:32;5.85;;;5.32;;
9142;SDS011;54072;47.410;8.446;2023-06-04T14:28:02;6.32;;;5.72;;
9142;SDS011;54072;47.410;8.446;2023-06-04T14:30:30;6.57;;;5.43;;
9142;SDS011;54072;47.410;8.446;2023-06-04T14:32:57;6.50;;;5.40;;
9142;SDS011;54072;47.410;8.446;2023-06-04T14:35:25;6.68;;;6.05;;
9142;SDS011;54072;47.410;8.446;2023-06-04T14:37:54;6.28;;;5.68;;
9142;SDS011;54072;47.410;8.446;2023-06-04T14:40:21;6.35;;;5.65;;
9142;SDS011;54072;47.410;8.446;2023-06-04T14:42:49;6.75;;;6.05;;
9142;SDS011;54072;47.410;8.446;2023-06-04T14:45:16;5.80;;;5.30;;
9142;SDS011;54072;47.410;8.446;2023-06-04T14:47:44;5.93;;;5.43;;
9142;SDS011;54072;47.410;8.446;2023-06-04T14:50:11;6.05;;;5.45;;
9142;SDS011;54072;47.410;8.446;2023-06-04T14:52:39;5.65;;;5.15;;
9142;SDS011;54072;47.410;8.446;2023-06-04T14:55:08;7.93;;;5.93;;
9142;SDS011;54072;47.410;8.446;2023-06-04T14:57:36;6.68;;;5.97;;
9142;SDS011;54072;47.410;8.446;2023-06-04T15:00:04;6.97;;;6.18;;
9142;SDS011;54072;47.410;8.446;2023-06-04T15:02:32;6.25;;;5.75;;
9142;SDS011;54072;47.410;8.446;2023-06-04T15:04:59;15.02;;;12.10;;
9142;SDS011;54072;47.410;8.446;2023-06-04T15:07:27;9.95;;;8.95;;